Arnots Addition, Pennsylvania
Current Conditions -  °F | °C
As of 7:55 PM on Wednesday 22 Oct 2014 (Local Time) from KHZL Reporting Station
Light Rain Light Rain  
Wind Chill: 41°   Ceiling: 700
Heat Index: 46°   Visibility: 5mi
Dew Point: 45°   Wind: 13mph
Humidity: 93%   Direction: 330°NNW
Pressure: 29.97"   Gusts: 22mph
Location:  40.7406°N, 76.2241°W
Report Text: KHZL 222355Z AUTO 33011G19KT 5SM -RA OVC007 08/07 A2997 RMK AO2
Loading
Personal Weather Stations






























Interactive Weather Map New forecast layout! Learn more

10-Day Weather Forecast

Advertisements
Track Severe Weather on mobile